Latest Weather Observations for Cape Jaffa

IDS60801

Issued at 5:51 am CDT Friday 21 January 2022 (issued every 10 minutes, with the page automatically refreshed every 10 minutes)

About weather observations | Map of weather stations | Latest weather observations for SA | Other Formats
Station Details ID: 026095 Name: THE LIMESTONE Lat: -36.97 Lon: 139.72 Height: 17.0 m
Data from the previous 72 hours. | See also: Recent months at Cape Jaffa
Date/Time
CDT
Temp
°C
App
Temp
°C
Dew
Point
°C
Rel
Hum
%
Delta-T
°C
Wind Press
QNH
hPa
Press
MSL
hPa
Rain since
9am
mm
Dir  Spd
km/h
Gust
km/h
Spd
kts
Gust
kts
21/05:30am 18.4 14.0 6.6 46 5.9 E 19 22 10 12 1021.1 1021.0 0.0
21/05:00am 18.9 14.3 5.7 42 6.5 E 19 22 10 12 1021.0 1020.9 0.0
21/04:30am 19.3 14.5 5.7 41 6.7 E 20 24 11 13 1020.8 1020.7 0.0
21/04:00am 19.5 14.9 5.6 40 6.8 E 19 22 10 12 1020.8 1020.7 0.0
21/03:30am 19.4 15.1 5.1 39 6.9 E 17 19 9 10 1020.9 1020.8 0.0
21/03:00am 19.9 15.6 5.2 38 7.2 E 17 20 9 11 1021.1 1021.0 0.0
21/02:30am 20.0 16.4 6.7 42 6.7 ESE 15 17 8 9 1021.0 1020.9 0.0
21/02:00am 21.3 16.8 4.4 33 8.2 E 17 19 9 10 1020.9 1020.8 0.0
21/01:30am 21.7 18.1 5.2 34 8.1 ESE 13 17 7 9 1021.1 1021.0 0.0
21/01:00am 23.4 19.8 4.9 30 9.2 E 13 17 7 9 1021.2 1021.1 0.0
21/12:30am 23.3 18.4 4.3 29 9.3 ENE 19 22 10 12 1021.0 1020.9 0.0
21/12:00am 22.5 19.2 7.9 39 7.6 E 15 19 8 10 1020.8 1020.7 0.0
 
Date/Time
CDT
Temp
°C
App
Temp
°C
Dew
Point
°C
Rel
Hum
%
Delta-T
°C
Wind Press
QNH
hPa
Press
MSL
hPa
Rain since
9am
mm
Dir  Spd
km/h
Gust
km/h
Spd
kts
Gust
kts
20/11:30pm 22.7 19.6 8.8 41 7.4 ESE 15 17 8 9 1020.7 1020.6 0.0
20/11:00pm 23.6 20.6 9.2 40 7.8 ESE 15 19 8 10 1020.7 1020.6 0.0
20/10:30pm 24.5 21.4 8.9 37 8.4 ESE 15 17 8 9 1020.6 1020.5 0.0
20/10:00pm 24.0 22.3 11.3 45 7.1 SE 11 19 6 10 1020.5 1020.4 0.0
20/09:30pm 23.8 23.1 13.1 51 6.2 SE 9 13 5 7 1020.3 1020.2 0.0
20/09:00pm 21.8 21.0 16.1 70 3.4 S 15 19 8 10 1019.8 1019.7 0.0
20/08:30pm 21.4 19.6 15.5 69 3.5 S 19 22 10 12 1019.3 1019.2 0.0
20/08:00pm 23.2 20.8 15.3 61 4.7 S 22 30 12 16 1019.1 1019.0 0.0
20/07:30pm 25.4 22.0 14.8 52 6.3 S 26 37 14 20 1018.8 1018.7 0.0
20/07:00pm 26.5 24.3 14.9 49 7.0 S 20 28 11 15 1018.9 1018.8 0.0
20/06:30pm 27.9 24.0 13.4 40 8.6 S 26 35 14 19 1019.0 1018.9 0.0
20/06:00pm 32.5 30.5 11.6 28 12.2 ESE 13 20 7 11 1018.9 1018.8 0.0
20/05:30pm 33.5 28.4 3.3 15 15.6 E 19 33 10 18 1018.9 1018.8 0.0
20/05:24pm 32.0 30.2 9.5 25 12.7 SSW 9 19 5 10 1019.1 1019.0 0.0
20/05:00pm 27.0 24.0 14.7 47 7.4 SSW 24 32 13 17 1019.2 1019.1 0.0
20/04:30pm 25.7 22.2 14.5 50 6.7 SSW 26 33 14 18 1019.8 1019.7 0.0
20/04:00pm 26.6 23.2 14.7 48 7.2 SSW 26 32 14 17 1020.1 1020.0 0.0
20/03:30pm 28.4 24.3 13.9 41 8.6 SSW 28 37 15 20 1020.3 1020.2 0.0
20/03:00pm 28.2 24.8 13.7 41 8.6 SSW 24 33 13 18 1020.9 1020.8 0.0
20/02:30pm 30.3 28.5 12.2 32 10.6 S 13 22 7 12 1021.5 1021.4 0.0
20/02:00pm 31.7 27.8 9.3 25 12.6 E 20 39 11 21 1021.7 1021.6 0.0
20/01:30pm 31.9 27.6 9.4 25 12.7 E 22 35 12 19 1021.8 1021.7 0.0
20/01:00pm 31.4 26.4 9.6 26 12.3 ENE 26 41 14 22 1022.1 1022.0 0.0
20/12:30pm 31.0 27.0 10.4 28 11.7 ENE 22 33 12 18 1022.4 1022.3 0.0
20/12:00pm 30.3 26.8 10.8 30 11.1 NE 20 33 11 18 1022.7 1022.6 0.0
20/11:30am 30.5 27.1 12.4 33 10.6 NE 22 43 12 23 1022.8 1022.7 0.0
20/11:00am 29.1 25.2 12.1 35 9.9 NE 24 39 13 21 1022.9 1022.8 0.0
20/10:30am 28.4 23.8 12.3 37 9.3 NE 28 39 15 21 1023.0 1022.9 0.0
20/10:00am 27.7 22.3 12.1 38 9.0 NE 32 44 17 24 1023.0 1022.9 0.0
20/09:30am 26.5 20.8 11.8 40 8.4 NE 33 43 18 23 1023.1 1023.0 0.0
20/09:00am 24.1 18.1 10.7 43 7.4 ENE 33 43 18 23 1023.0 1022.9 0.0
20/08:30am 22.6 16.5 10.4 46 6.7 ENE 33 43 18 23 1022.9 1022.8 0.0
20/08:00am 20.9 15.0 10.4 51 5.7 E 32 39 17 21 1022.6 1022.5 0.0
20/07:30am 19.1 13.9 10.4 57 4.7 E 28 33 15 18 1022.3 1022.2 0.0
20/07:00am 18.3 14.3 10.4 60 4.2 E 22 28 12 15 1022.4 1022.3 0.0
20/06:30am 17.6 13.6 10.5 63 3.8 E 22 30 12 16 1022.2 1022.1 0.0
20/06:00am 17.8 13.4 10.4 62 3.9 E 24 32 13 17 1021.9 1021.8 0.0
20/05:30am 18.0 13.2 10.4 61 4.0 E 26 33 14 18 1021.5 1021.4 0.0
20/05:00am 18.5 13.4 10.6 60 4.3 E 28 35 15 19 1021.2 1021.1 0.0
20/04:30am 18.8 14.1 10.6 59 4.4 E 26 33 14 18 1020.8 1020.7 0.0
20/04:00am 19.4 14.7 10.7 57 4.7 E 26 33 14 18 1020.5 1020.4 0.0
20/03:30am 19.4 15.1 10.7 57 4.7 E 24 32 13 17 1020.3 1020.2 0.0
20/03:00am 19.6 15.3 10.6 56 4.9 E 24 35 13 19 1020.5 1020.4 0.0
20/02:30am 19.8 16.2 10.5 55 5.0 ESE 20 30 11 16 1020.5 1020.4 0.0
20/02:00am 20.4 15.7 10.5 53 5.4 E 26 35 14 19 1020.6 1020.5 0.0
20/01:30am 20.6 16.2 10.4 52 5.5 E 24 32 13 17 1020.7 1020.6 0.0
20/01:00am 21.0 16.6 10.5 51 5.7 E 24 33 13 18 1020.5 1020.4 0.0
20/12:30am 21.4 17.4 10.3 49 6.0 ESE 22 35 12 19 1020.4 1020.3 0.0
20/12:00am 21.9 18.2 10.1 47 6.4 ESE 20 33 11 18 1020.2 1020.1 0.0
 
Date/Time
CDT
Temp
°C
App
Temp
°C
Dew
Point
°C
Rel
Hum
%
Delta-T
°C
Wind Press
QNH
hPa
Press
MSL
hPa
Rain since
9am
mm
Dir  Spd
km/h
Gust
km/h
Spd
kts
Gust
kts
19/11:30pm 22.7 18.2 10.2 45 6.8 ESE 24 39 13 21 1020.0 1019.9 0.0
19/11:00pm 23.5 18.2 9.9 42 7.4 ESE 28 43 15 23 1019.8 1019.7 0.0
19/10:30pm 23.9 19.9 10.6 43 7.4 SE 22 32 12 17 1019.6 1019.5 0.0
19/10:00pm 23.5 20.9 11.9 48 6.6 SE 17 28 9 15 1019.3 1019.2 0.0
19/09:30pm 24.9 20.8 11.5 43 7.6 SE 24 37 13 20 1018.6 1018.5 0.0
19/09:00pm 24.7 20.8 12.0 45 7.2 SE 24 39 13 21 1018.2 1018.1 0.0
19/08:30pm 24.9 20.7 12.5 46 7.1 SE 26 39 14 21 1017.7 1017.6 0.0
19/08:00pm 25.4 21.8 12.9 45 7.3 SSE 24 35 13 19 1017.3 1017.2 0.0
19/07:30pm 24.6 20.4 14.7 54 5.9 SSE 30 41 16 22 1017.0 1016.9 0.0
19/07:00pm 25.2 20.6 14.6 51 6.3 S 32 43 17 23 1016.7 1016.6 0.0
19/06:30pm 26.2 22.0 14.6 48 6.9 S 30 37 16 20 1016.6 1016.5 0.0
19/06:00pm 26.3 20.8 14.7 48 7.0 S 37 48 20 26 1016.4 1016.3 0.0
19/05:44pm 26.8 22.5 14.5 46 7.4 S 30 46 16 25 1016.4 1016.3 0.0
19/05:35pm 27.9 25.4 12.3 38 9.1 ESE 17 28 9 15 1016.8 1016.7 0.0
19/05:30pm 33.1 28.8 7.9 21 14.0 E 20 32 11 17 1016.8 1016.7 0.0
19/05:15pm 32.3 28.5 9.2 24 13.0 SE 19 30 10 16 1016.7 1016.6 0.0
19/05:11pm 27.1 24.3 13.1 42 8.2 SE 20 39 11 21 1016.7 1016.6 0.0
19/05:00pm 32.5 28.0 8.7 23 13.3 ESE 22 41 12 22 1016.7 1016.6 0.0
19/04:30pm 31.7 26.9 8.7 24 12.8 ESE 24 37 13 20 1017.0 1016.9 0.0
19/04:00pm 31.4 25.5 9.0 25 12.5 E 30 43 16 23 1017.3 1017.2 0.0
19/03:30pm 30.7 24.9 9.6 27 11.9 E 30 43 16 23 1017.4 1017.3 0.0
19/03:06pm 30.4 25.1 9.8 28 11.6 E 28 46 15 25 1017.7 1017.6 0.0
19/03:00pm 30.3 25.4 9.8 28 11.6 ESE 26 37 14 20 1017.8 1017.7 0.0
19/02:30pm 29.6 23.6 10.2 30 11.0 E 32 41 17 22 1018.1 1018.0 0.0
19/02:00pm 28.3 23.8 10.0 32 10.3 ESE 24 39 13 21 1018.3 1018.2 0.0
19/01:30pm 27.7 23.3 10.4 34 9.7 ESE 24 39 13 21 1018.6 1018.5 0.0
19/01:00pm 26.0 21.3 10.6 38 8.6 ESE 26 41 14 22 1019.0 1018.9 0.0
19/12:40pm 25.9 20.9 10.9 39 8.4 ESE 28 52 15 28 1019.2 1019.1 0.0
19/12:30pm 25.4 20.4 10.8 40 8.2 ESE 28 44 15 24 1019.3 1019.2 0.0
19/12:22pm 25.8 20.9 11.2 40 8.3 ESE 28 52 15 28 1019.4 1019.3 0.0
19/12:00pm 24.5 19.5 11.1 43 7.5 ESE 28 39 15 21 1019.6 1019.5 0.0
19/11:30am 23.5 18.6 11.2 46 6.9 ESE 28 43 15 23 1020.0 1019.9 0.0
19/11:00am 22.2 18.0 11.0 49 6.2 ESE 24 43 13 23 1020.5 1020.4 0.0
19/10:49am 21.5 16.6 11.2 52 5.7 SE 28 46 15 25 1020.6 1020.5 0.0
19/10:30am 21.0 16.5 11.3 54 5.3 ESE 26 43 14 23 1020.7 1020.6 0.0
19/10:01am 20.7 15.9 11.6 56 5.0 SE 28 46 15 25 1020.7 1020.6 0.0
19/10:00am 20.3 15.7 11.2 56 5.0 SE 26 46 14 25 1020.7 1020.6 0.0
19/09:30am 18.5 13.2 11.3 63 3.9 SSE 30 44 16 24 1021.1 1021.0 0.0
19/09:00am 18.6 14.0 11.2 62 4.0 SSE 26 44 14 24 1021.1 1021.0 0.0
19/08:30am 17.8 13.5 10.7 63 3.8 SSE 24 35 13 19 1021.1 1021.0 0.0
19/08:00am 15.9 11.4 10.0 68 3.1 SSE 24 33 13 18 1020.9 1020.8 0.0
19/07:30am 15.5 11.7 9.0 65 3.3 SSE 19 28 10 15 1020.7 1020.6 0.0
19/07:00am 14.5 10.4 8.0 65 3.2 S 19 24 10 13 1020.5 1020.4 0.0
19/06:30am 13.8 10.3 7.1 64 3.3 SSE 15 20 8 11 1020.3 1020.2 0.0
19/06:00am 14.0 10.5 7.1 63 3.4 SSE 15 22 8 12 1020.0 1019.9 0.0
19/05:30am 14.8 10.6 7.4 61 3.6 SSE 19 28 10 15 1019.9 1019.8 0.0
19/05:00am 14.8 10.5 7.1 60 3.8 SSE 19 28 10 15 1019.8 1019.7 0.0
19/04:30am 14.2 11.0 7.0 62 3.5 SSE 13 20 7 11 1019.7 1019.6 0.0
19/04:00am 14.0 10.0 6.8 62 3.5 SSE 17 22 9 12 1019.8 1019.7 0.0
19/03:30am 13.6 10.0 6.7 63 3.3 SE 15 20 8 11 1019.7 1019.6 0.0
19/03:00am 13.9 9.9 6.5 61 3.5 SSE 17 22 9 12 1019.6 1019.5 0.0
19/02:30am 14.3 10.7 6.9 61 3.6 SSE 15 26 8 14 1019.7 1019.6 0.0
19/02:00am 14.0 10.3 6.4 60 3.7 SSE 15 24 8 13 1019.8 1019.7 0.0
19/01:30am 14.6 10.3 7.2 61 3.6 SSE 19 28 10 15 1019.9 1019.8 0.0
19/01:00am 14.6 10.5 8.5 67 3.1 SSE 20 28 11 15 1019.9 1019.8 0.0
19/12:30am 14.6 10.8 9.2 70 2.8 SSE 19 26 10 14 1019.8 1019.7 0.0
19/12:00am 14.8 10.9 9.4 70 2.8 SSE 20 33 11 18 1019.8 1019.7 0.0
 
Date/Time
CDT
Temp
°C
App
Temp
°C
Dew
Point
°C
Rel
Hum
%
Delta-T
°C
Wind Press
QNH
hPa
Press
MSL
hPa
Rain since
9am
mm
Dir  Spd
km/h
Gust
km/h
Spd
kts
Gust
kts
18/11:30pm 15.5 10.9 9.6 68 3.0 SSE 24 37 13 20 1020.0 1019.9 0.0
18/11:00pm 15.7 10.7 9.6 67 3.2 SSE 26 37 14 20 1019.8 1019.7 0.0
18/10:30pm 16.1 11.0 9.1 63 3.6 SSE 26 37 14 20 1020.0 1019.9 0.0
18/10:00pm 16.3 11.5 8.8 61 3.8 SSE 24 35 13 19 1019.9 1019.8 0.0
18/09:30pm 16.5 12.5 9.0 61 3.9 SSE 20 33 11 18 1019.7 1019.6 0.0
18/09:00pm 16.4 11.1 9.8 65 3.4 SSE 28 41 15 22 1019.4 1019.3 0.0
18/08:30pm 16.3 9.8 10.2 67 3.2 SSE 35 50 19 27 1019.0 1018.9 0.0
18/08:00pm 16.5 10.3 10.1 66 3.4 SSE 33 44 18 24 1018.6 1018.5 0.0
18/07:30pm 17.0 8.9 10.1 64 3.6 SSE 43 57 23 31 1017.9 1017.8 0.0
18/07:23pm 17.3 10.3 10.0 62 3.9 SSE 37 57 20 31 1017.7 1017.6 0.0
18/07:00pm 17.8 9.2 10.2 61 4.0 S 46 54 25 29 1017.5 1017.4 0.0
18/06:30pm 18.6 10.0 10.4 59 4.4 S 46 57 25 31 1017.2 1017.1 0.0
18/06:00pm 19.6 11.2 9.8 53 5.2 S 44 57 24 31 1016.9 1016.8 0.0
18/05:30pm 19.3 10.7 8.3 49 5.7 S 43 56 23 30 1017.0 1016.9 0.0
18/05:00pm 19.9 10.9 8.9 49 5.8 S 46 61 25 33 1016.8 1016.7 0.0
18/04:30pm 19.7 10.1 9.6 52 5.4 S 50 61 27 33 1016.7 1016.6 0.0
18/04:00pm 20.2 11.3 10.6 54 5.2 SSW 48 59 26 32 1017.0 1016.9 0.0
18/03:30pm 20.7 11.9 10.8 53 5.4 S 48 57 26 31 1017.2 1017.1 0.0
18/03:00pm 19.5 10.3 9.4 52 5.3 S 48 59 26 32 1017.1 1017.0 0.0
18/02:30pm 20.3 11.9 9.8 51 5.6 S 44 52 24 28 1017.4 1017.3 0.0
18/02:11pm 20.7 12.6 8.7 46 6.3 S 41 61 22 33 1017.7 1017.6 0.0
18/02:00pm 19.8 11.3 9.1 50 5.6 SSW 44 54 24 29 1017.5 1017.4 0.0
18/01:30pm 20.3 12.0 9.2 49 5.9 SSW 43 52 23 28 1017.7 1017.6 0.0
18/01:00pm 20.4 11.6 8.1 45 6.4 SSW 44 52 24 28 1017.8 1017.7 0.0
18/12:30pm 20.4 13.6 9.3 49 5.9 SSW 35 44 19 24 1018.3 1018.2 0.0
18/12:00pm 19.2 12.7 8.8 51 5.4 S 33 41 18 22 1018.4 1018.3 0.0
18/11:30am 20.7 16.3 9.0 47 6.2 SSE 22 39 12 21 1018.4 1018.3 0.0
18/11:00am 17.3 11.4 9.0 58 4.3 SSE 30 39 16 21 1018.8 1018.7 0.0
18/10:30am 18.1 14.4 9.5 57 4.5 SSE 19 28 10 15 1019.0 1018.9 0.0
18/10:00am 16.4 12.6 9.8 65 3.5 SE 20 28 11 15 1019.2 1019.1 0.0
18/09:30am 17.5 13.5 9.2 58 4.3 SSE 20 35 11 19 1018.8 1018.7 0.0
18/09:00am 16.8 12.5 7.7 55 4.6 SSE 20 28 11 15 1018.5 1018.4 0.0
18/08:30am 16.2 13.3 9.6 65 3.4 SSE 15 24 8 13 1018.1 1018.0 0.0
18/08:00am 15.7 13.6 9.8 68 3.1 SE 11 19 6 10 1017.7 1017.6 0.0
18/07:30am 15.1 13.2 9.2 68 3.0 SE 9 15 5 8 1017.6 1017.5 0.0
18/07:00am 14.8 12.3 9.6 71 2.7 SE 13 22 7 12 1017.6 1017.5 0.0
18/06:30am 14.1 12.1 8.7 70 2.7 SE 9 13 5 7 1017.2 1017.1 0.0
18/06:00am 14.6 12.7 9.2 70 2.8 SSE 9 15 5 8 1017.0 1016.9 0.0

Other formats

Comma delimited format used in spreadsheet applications
http://www.bom.gov.au/fwo/IDS60801/IDS60801.94813.axf

JavaScript Object Notation format (JSON) in row-major order
http://www.bom.gov.au/fwo/IDS60801/IDS60801.94813.json

Data quality

Most of these data are generated automatically and are frequently updated. Quality checks on data are not normally performed. It is possible for incorrect values to appear. Refer to information at About Latest Weather Observations and please check the disclaimer before using these data.